sensor_id;sensor_type;location;lat;lon;timestamp;pressure;altitude;pressure_sealevel;temperature;humidity
12969;BME280;6549;53.128;8.182;2023-02-16T00:02:00;102022.41;;;3.41;100.00
12969;BME280;6549;53.128;8.182;2023-02-16T00:05:00;102030.09;;;3.39;100.00
12969;BME280;6549;53.128;8.182;2023-02-16T00:08:01;102020.03;;;3.39;100.00
12969;BME280;6549;53.128;8.182;2023-02-16T00:11:01;102011.06;;;3.39;100.00
12969;BME280;6549;53.128;8.182;2023-02-16T00:14:33;102008.06;;;3.40;100.00
12969;BME280;6549;53.128;8.182;2023-02-16T00:17:33;102007.63;;;3.47;100.00
12969;BME280;6549;53.128;8.182;2023-02-16T00:20:34;102010.22;;;3.52;100.00
12969;BME280;6549;53.128;8.182;2023-02-16T00:23:34;102001.44;;;3.55;100.00
12969;BME280;6549;53.128;8.182;2023-02-16T00:26:34;102002.59;;;3.54;100.00
12969;BME280;6549;53.128;8.182;2023-02-16T00:29:36;101996.34;;;3.53;100.00
12969;BME280;6549;53.128;8.182;2023-02-16T00:32:36;101997.75;;;3.51;100.00
12969;BME280;6549;53.128;8.182;2023-02-16T00:35:36;101987.97;;;3.50;100.00
12969;BME280;6549;53.128;8.182;2023-02-16T00:38:37;101995.34;;;3.49;100.00
12969;BME280;6549;53.128;8.182;2023-02-16T00:41:38;101997.75;;;3.51;100.00
12969;BME280;6549;53.128;8.182;2023-02-16T00:44:52;101993.22;;;3.46;100.00
12969;BME280;6549;53.128;8.182;2023-02-16T00:47:53;102000.38;;;3.42;100.00
12969;BME280;6549;53.128;8.182;2023-02-16T00:50:53;102001.31;;;3.38;100.00
12969;BME280;6549;53.128;8.182;2023-02-16T00:53:54;102000.03;;;3.35;100.00
12969;BME280;6549;53.128;8.182;2023-02-16T00:56:54;101997.59;;;3.34;100.00
12969;BME280;6549;53.128;8.182;2023-02-16T01:00:26;101999.50;;;3.33;100.00
12969;BME280;6549;53.128;8.182;2023-02-16T01:03:28;101993.88;;;3.30;100.00
12969;BME280;6549;53.128;8.182;2023-02-16T01:06:28;101994.69;;;3.30;100.00
12969;BME280;6549;53.128;8.182;2023-02-16T01:09:47;102005.84;;;3.29;100.00
12969;BME280;6549;53.128;8.182;2023-02-16T01:13:06;101996.59;;;3.30;100.00
12969;BME280;6549;53.128;8.182;2023-02-16T01:16:35;101991.44;;;3.42;100.00
12969;BME280;6549;53.128;8.182;2023-02-16T01:19:35;101997.59;;;3.34;100.00
12969;BME280;6549;53.128;8.182;2023-02-16T01:22:35;101995.31;;;3.27;100.00
12969;BME280;6549;53.128;8.182;2023-02-16T01:25:36;101992.28;;;3.29;100.00
12969;BME280;6549;53.128;8.182;2023-02-16T01:28:37;101992.16;;;3.34;100.00
12969;BME280;6549;53.128;8.182;2023-02-16T01:31:37;101989.16;;;3.35;100.00
12969;BME280;6549;53.128;8.182;2023-02-16T01:34:38;101995.88;;;3.38;100.00
12969;BME280;6549;53.128;8.182;2023-02-16T01:37:38;101987.84;;;3.33;100.00
12969;BME280;6549;53.128;8.182;2023-02-16T01:40:45;101996.97;;;3.37;100.00
12969;BME280;6549;53.128;8.182;2023-02-16T01:43:55;101988.81;;;3.37;100.00
12969;BME280;6549;53.128;8.182;2023-02-16T01:47:02;101981.28;;;3.34;100.00
12969;BME280;6549;53.128;8.182;2023-02-16T01:50:20;101984.31;;;3.32;100.00
12969;BME280;6549;53.128;8.182;2023-02-16T01:53:28;101980.59;;;3.28;100.00
12969;BME280;6549;53.128;8.182;2023-02-16T01:56:31;101982.84;;;3.26;100.00
12969;BME280;6549;53.128;8.182;2023-02-16T02:02:57;101980.13;;;3.26;100.00
12969;BME280;6549;53.128;8.182;2023-02-16T02:06:22;101985.84;;;3.25;100.00
12969;BME280;6549;53.128;8.182;2023-02-16T02:09:38;101986.16;;;3.23;100.00
12969;BME280;6549;53.128;8.182;2023-02-16T02:12:47;101971.28;;;3.21;100.00
12969;BME280;6549;53.128;8.182;2023-02-16T02:15:48;101980.63;;;3.14;100.00
12969;BME280;6549;53.128;8.182;2023-02-16T02:18:49;101967.50;;;3.08;100.00
12969;BME280;6549;53.128;8.182;2023-02-16T02:26:00;101967.59;;;3.03;100.00
12969;BME280;6549;53.128;8.182;2023-02-16T02:35:38;101958.25;;;2.95;100.00
12969;BME280;6549;53.128;8.182;2023-02-16T02:39:04;101966.22;;;2.92;100.00
12969;BME280;6549;53.128;8.182;2023-02-16T02:42:13;101955.38;;;2.92;100.00
12969;BME280;6549;53.128;8.182;2023-02-16T02:45:22;101959.19;;;2.91;100.00
12969;BME280;6549;53.128;8.182;2023-02-16T02:48:29;101937.75;;;2.89;100.00
12969;BME280;6549;53.128;8.182;2023-02-16T02:51:30;101942.38;;;2.89;100.00
12969;BME280;6549;53.128;8.182;2023-02-16T02:54:36;101932.94;;;2.86;100.00
12969;BME280;6549;53.128;8.182;2023-02-16T02:57:56;101929.22;;;2.82;100.00
12969;BME280;6549;53.128;8.182;2023-02-16T03:01:17;101930.84;;;2.83;100.00
12969;BME280;6549;53.128;8.182;2023-02-16T03:04:20;101928.13;;;2.83;100.00
12969;BME280;6549;53.128;8.182;2023-02-16T03:07:24;101928.31;;;2.87;100.00
12969;BME280;6549;53.128;8.182;2023-02-16T03:10:49;101927.00;;;2.84;100.00
12969;BME280;6549;53.128;8.182;2023-02-16T03:14:15;101920.00;;;2.83;100.00
12969;BME280;6549;53.128;8.182;2023-02-16T03:17:20;101910.13;;;2.87;100.00
12969;BME280;6549;53.128;8.182;2023-02-16T03:20:40;101904.19;;;2.85;100.00
12969;BME280;6549;53.128;8.182;2023-02-16T03:24:02;101902.28;;;2.86;100.00
12969;BME280;6549;53.128;8.182;2023-02-16T03:27:27;101890.59;;;2.85;100.00
12969;BME280;6549;53.128;8.182;2023-02-16T03:30:48;101897.13;;;2.84;100.00
12969;BME280;6549;53.128;8.182;2023-02-16T03:33:50;101905.28;;;2.84;100.00
12969;BME280;6549;53.128;8.182;2023-02-16T03:36:56;101916.13;;;2.84;100.00
12969;BME280;6549;53.128;8.182;2023-02-16T03:39:57;101913.44;;;2.84;100.00
12969;BME280;6549;53.128;8.182;2023-02-16T03:43:17;101908.00;;;2.84;100.00
12969;BME280;6549;53.128;8.182;2023-02-16T03:46:17;101907.53;;;2.82;100.00
12969;BME280;6549;53.128;8.182;2023-02-16T03:49:18;101904.81;;;2.82;100.00
12969;BME280;6549;53.128;8.182;2023-02-16T03:52:19;101903.69;;;2.83;100.00
12969;BME280;6549;53.128;8.182;2023-02-16T03:55:19;101901.28;;;2.82;100.00
12969;BME280;6549;53.128;8.182;2023-02-16T03:58:21;101906.19;;;2.80;100.00
12969;BME280;6549;53.128;8.182;2023-02-16T04:01:22;101915.47;;;2.79;100.00
12969;BME280;6549;53.128;8.182;2023-02-16T04:04:23;101901.09;;;2.78;100.00
12969;BME280;6549;53.128;8.182;2023-02-16T04:07:23;101910.81;;;2.79;100.00
12969;BME280;6549;53.128;8.182;2023-02-16T04:10:24;101915.16;;;2.80;100.00
12969;BME280;6549;53.128;8.182;2023-02-16T04:13:25;101916.75;;;2.81;100.00
12969;BME280;6549;53.128;8.182;2023-02-16T04:16:25;101915.16;;;2.80;100.00
12969;BME280;6549;53.128;8.182;2023-02-16T04:19:25;101918.38;;;2.82;100.00
12969;BME280;6549;53.128;8.182;2023-02-16T04:22:26;101920.28;;;2.82;100.00
12969;BME280;6549;53.128;8.182;2023-02-16T04:25:26;101925.19;;;2.80;100.00
12969;BME280;6549;53.128;8.182;2023-02-16T04:28:27;101923.63;;;2.79;100.00
12969;BME280;6549;53.128;8.182;2023-02-16T04:31:27;101923.41;;;2.75;100.00
12969;BME280;6549;53.128;8.182;2023-02-16T04:34:27;101924.53;;;2.74;100.00
12969;BME280;6549;53.128;8.182;2023-02-16T04:37:28;101917.78;;;2.71;100.00
12969;BME280;6549;53.128;8.182;2023-02-16T04:40:28;101914.88;;;2.68;100.00
12969;BME280;6549;53.128;8.182;2023-02-16T04:43:28;101904.03;;;2.68;100.00
12969;BME280;6549;53.128;8.182;2023-02-16T04:46:29;101912.47;;;2.66;100.00
12969;BME280;6549;53.128;8.182;2023-02-16T04:49:29;101918.69;;;2.67;100.00
12969;BME280;6549;53.128;8.182;2023-02-16T04:52:29;101905.63;;;2.69;100.00
12969;BME280;6549;53.128;8.182;2023-02-16T04:55:30;101905.31;;;2.70;100.00
12969;BME280;6549;53.128;8.182;2023-02-16T04:58:30;101901.78;;;2.70;100.00
12969;BME280;6549;53.128;8.182;2023-02-16T05:01:30;101895.25;;;2.71;100.00
12969;BME280;6549;53.128;8.182;2023-02-16T05:04:30;101897.38;;;2.74;100.00
12969;BME280;6549;53.128;8.182;2023-02-16T05:07:31;101892.22;;;2.86;100.00
12969;BME280;6549;53.128;8.182;2023-02-16T05:10:31;101890.22;;;2.92;100.00
12969;BME280;6549;53.128;8.182;2023-02-16T05:13:31;101886.88;;;2.95;100.00
12969;BME280;6549;53.128;8.182;2023-02-16T05:16:50;101879.41;;;3.00;100.00
12969;BME280;6549;53.128;8.182;2023-02-16T05:19:58;101886.31;;;3.06;100.00
12969;BME280;6549;53.128;8.182;2023-02-16T05:22:59;101885.72;;;3.09;100.00
12969;BME280;6549;53.128;8.182;2023-02-16T05:25:59;101879.66;;;3.12;100.00
12969;BME280;6549;53.128;8.182;2023-02-16T05:29:00;101883.06;;;3.18;100.00
12969;BME280;6549;53.128;8.182;2023-02-16T05:32:00;101885.03;;;3.26;100.00
12969;BME280;6549;53.128;8.182;2023-02-16T05:35:01;101880.09;;;3.28;100.00
12969;BME280;6549;53.128;8.182;2023-02-16T05:38:01;101877.59;;;3.32;100.00
12969;BME280;6549;53.128;8.182;2023-02-16T05:41:01;101883.50;;;3.34;100.00
12969;BME280;6549;53.128;8.182;2023-02-16T05:44:03;101877.94;;;3.39;100.00
12969;BME280;6549;53.128;8.182;2023-02-16T05:47:04;101885.78;;;3.40;100.00
12969;BME280;6549;53.128;8.182;2023-02-16T05:50:04;101880.94;;;3.37;100.00
12969;BME280;6549;53.128;8.182;2023-02-16T05:53:05;101894.25;;;3.39;100.00
12969;BME280;6549;53.128;8.182;2023-02-16T05:56:05;101892.63;;;3.38;100.00
12969;BME280;6549;53.128;8.182;2023-02-16T05:59:06;101882.75;;;3.42;100.00
12969;BME280;6549;53.128;8.182;2023-02-16T06:02:07;101874.47;;;3.47;100.00
12969;BME280;6549;53.128;8.182;2023-02-16T06:05:08;101878.16;;;3.51;100.00
12969;BME280;6549;53.128;8.182;2023-02-16T06:08:09;101885.72;;;3.54;100.00
12969;BME280;6549;53.128;8.182;2023-02-16T06:11:10;101873.88;;;3.58;100.00
12969;BME280;6549;53.128;8.182;2023-02-16T06:14:30;101876.81;;;3.62;100.00
12969;BME280;6549;53.128;8.182;2023-02-16T06:17:30;101880.19;;;3.68;100.00
12969;BME280;6549;53.128;8.182;2023-02-16T06:20:31;101888.84;;;3.70;100.00
12969;BME280;6549;53.128;8.182;2023-02-16T06:23:31;101886.00;;;3.75;100.00
12969;BME280;6549;53.128;8.182;2023-02-16T06:26:32;101887.78;;;3.79;100.00
12969;BME280;6549;53.128;8.182;2023-02-16T06:29:32;101899.94;;;3.82;100.00
12969;BME280;6549;53.128;8.182;2023-02-16T06:32:32;101896.28;;;3.86;100.00
12969;BME280;6549;53.128;8.182;2023-02-16T06:35:33;101904.59;;;3.90;100.00
12969;BME280;6549;53.128;8.182;2023-02-16T06:38:33;101905.91;;;3.92;100.00
12969;BME280;6549;53.128;8.182;2023-02-16T06:41:33;101900.66;;;3.96;100.00
12969;BME280;6549;53.128;8.182;2023-02-16T06:44:36;101908.16;;;3.99;100.00
12969;BME280;6549;53.128;8.182;2023-02-16T06:47:38;101911.41;;;4.01;100.00
12969;BME280;6549;53.128;8.182;2023-02-16T06:50:38;101898.28;;;4.03;100.00
12969;BME280;6549;53.128;8.182;2023-02-16T06:53:39;101887.91;;;4.05;100.00
12969;BME280;6549;53.128;8.182;2023-02-16T06:56:39;101900.84;;;4.08;100.00
12969;BME280;6549;53.128;8.182;2023-02-16T06:59:39;101896.72;;;4.11;100.00
12969;BME280;6549;53.128;8.182;2023-02-16T07:02:40;101894.47;;;4.13;100.00
12969;BME280;6549;53.128;8.182;2023-02-16T07:05:42;101897.19;;;4.13;100.00
12969;BME280;6549;53.128;8.182;2023-02-16T07:08:43;101900.41;;;4.15;100.00
12969;BME280;6549;53.128;8.182;2023-02-16T07:11:43;101900.72;;;4.13;100.00
12969;BME280;6549;53.128;8.182;2023-02-16T07:14:43;101898.16;;;4.17;100.00
12969;BME280;6549;53.128;8.182;2023-02-16T07:17:44;101891.31;;;4.19;100.00
12969;BME280;6549;53.128;8.182;2023-02-16T07:20:44;101898.84;;;4.22;100.00
12969;BME280;6549;53.128;8.182;2023-02-16T07:23:44;101901.41;;;4.27;100.00
12969;BME280;6549;53.128;8.182;2023-02-16T07:26:45;101903.50;;;4.30;100.00
12969;BME280;6549;53.128;8.182;2023-02-16T07:29:45;101903.06;;;4.37;100.00
12969;BME280;6549;53.128;8.182;2023-02-16T07:32:46;101898.75;;;4.44;100.00
12969;BME280;6549;53.128;8.182;2023-02-16T07:35:46;101905.00;;;4.45;100.00
12969;BME280;6549;53.128;8.182;2023-02-16T07:38:47;101910.91;;;4.47;100.00
12969;BME280;6549;53.128;8.182;2023-02-16T07:41:47;101905.66;;;4.50;100.00
12969;BME280;6549;53.128;8.182;2023-02-16T07:44:47;101900.84;;;4.56;100.00
12969;BME280;6549;53.128;8.182;2023-02-16T07:47:48;101897.97;;;4.61;100.00
12969;BME280;6549;53.128;8.182;2023-02-16T07:50:48;101895.13;;;4.66;100.00
12969;BME280;6549;53.128;8.182;2023-02-16T07:53:49;101891.44;;;4.71;100.00
12969;BME280;6549;53.128;8.182;2023-02-16T07:56:49;101907.94;;;4.74;100.00
12969;BME280;6549;53.128;8.182;2023-02-16T07:59:51;101900.25;;;4.76;100.00
12969;BME280;6549;53.128;8.182;2023-02-16T08:02:54;101895.78;;;4.80;100.00
12969;BME280;6549;53.128;8.182;2023-02-16T08:05:54;101901.09;;;4.85;100.00
12969;BME280;6549;53.128;8.182;2023-02-16T08:08:55;101899.31;;;4.89;100.00
12969;BME280;6549;53.128;8.182;2023-02-16T08:11:56;101898.22;;;4.90;100.00
12969;BME280;6549;53.128;8.182;2023-02-16T08:14:56;101901.72;;;4.91;100.00
12969;BME280;6549;53.128;8.182;2023-02-16T08:17:56;101911.19;;;4.93;100.00
12969;BME280;6549;53.128;8.182;2023-02-16T08:21:06;101909.25;;;4.94;100.00
12969;BME280;6549;53.128;8.182;2023-02-16T08:24:12;101917.59;;;4.97;100.00
12969;BME280;6549;53.128;8.182;2023-02-16T08:27:13;101911.03;;;4.98;100.00
12969;BME280;6549;53.128;8.182;2023-02-16T08:30:13;101920.16;;;5.03;100.00
12969;BME280;6549;53.128;8.182;2023-02-16T08:33:17;101920.00;;;5.08;100.00
12969;BME280;6549;53.128;8.182;2023-02-16T08:39:25;101915.50;;;5.20;100.00
12969;BME280;6549;53.128;8.182;2023-02-16T08:42:26;101919.84;;;5.30;100.00
12969;BME280;6549;53.128;8.182;2023-02-16T08:45:26;101917.91;;;5.39;100.00
12969;BME280;6549;53.128;8.182;2023-02-16T08:48:26;101904.59;;;5.46;100.00
12969;BME280;6549;53.128;8.182;2023-02-16T08:51:30;101905.38;;;5.55;100.00
12969;BME280;6549;53.128;8.182;2023-02-16T08:54:30;101905.06;;;5.65;100.00
12969;BME280;6549;53.128;8.182;2023-02-16T08:57:33;101906.63;;;5.75;100.00
12969;BME280;6549;53.128;8.182;2023-02-16T09:00:34;101902.28;;;5.82;100.00
12969;BME280;6549;53.128;8.182;2023-02-16T09:03:36;101902.59;;;5.90;100.00
12969;BME280;6549;53.128;8.182;2023-02-16T09:06:39;101903.38;;;5.99;100.00
12969;BME280;6549;53.128;8.182;2023-02-16T09:09:40;101909.78;;;6.03;100.00
12969;BME280;6549;53.128;8.182;2023-02-16T09:12:40;101924.19;;;6.12;100.00
12969;BME280;6549;53.128;8.182;2023-02-16T09:15:42;101940.06;;;6.18;100.00
12969;BME280;6549;53.128;8.182;2023-02-16T09:18:44;101925.28;;;6.28;100.00
12969;BME280;6549;53.128;8.182;2023-02-16T09:21:45;101928.75;;;6.37;100.00
12969;BME280;6549;53.128;8.182;2023-02-16T09:24:46;101927.38;;;6.52;100.00
12969;BME280;6549;53.128;8.182;2023-02-16T09:27:46;101926.69;;;6.63;100.00
12969;BME280;6549;53.128;8.182;2023-02-16T09:30:46;101930.44;;;6.80;100.00
12969;BME280;6549;53.128;8.182;2023-02-16T09:33:48;101928.28;;;6.94;100.00
12969;BME280;6549;53.128;8.182;2023-02-16T09:37:06;101934.00;;;7.01;100.00
12969;BME280;6549;53.128;8.182;2023-02-16T09:40:08;101941.31;;;7.09;100.00
12969;BME280;6549;53.128;8.182;2023-02-16T09:46:32;101930.19;;;7.14;100.00
12969;BME280;6549;53.128;8.182;2023-02-16T09:49:39;101934.84;;;7.13;100.00
12969;BME280;6549;53.128;8.182;2023-02-16T09:59:26;101938.69;;;7.21;100.00
12969;BME280;6549;53.128;8.182;2023-02-16T10:05:48;101958.34;;;7.14;100.00
12969;BME280;6549;53.128;8.182;2023-02-16T10:08:57;101950.47;;;7.13;100.00
12969;BME280;6549;53.128;8.182;2023-02-16T10:12:09;101948.28;;;7.06;100.00
12969;BME280;6549;53.128;8.182;2023-02-16T10:15:17;101954.41;;;7.03;100.00
12969;BME280;6549;53.128;8.182;2023-02-16T10:18:25;101942.31;;;7.04;100.00
12969;BME280;6549;53.128;8.182;2023-02-16T10:21:27;101946.06;;;7.00;100.00
12969;BME280;6549;53.128;8.182;2023-02-16T10:24:46;101948.13;;;7.03;100.00
12969;BME280;6549;53.128;8.182;2023-02-16T10:28:00;101951.69;;;7.03;100.00
12969;BME280;6549;53.128;8.182;2023-02-16T10:31:22;101943.59;;;7.07;100.00
12969;BME280;6549;53.128;8.182;2023-02-16T10:34:48;101950.00;;;7.11;100.00
12969;BME280;6549;53.128;8.182;2023-02-16T10:41:26;101942.25;;;7.13;100.00
12969;BME280;6549;53.128;8.182;2023-02-16T10:44:35;101949.69;;;7.12;100.00
12969;BME280;6549;53.128;8.182;2023-02-16T10:47:41;101953.66;;;7.15;100.00
12969;BME280;6549;53.128;8.182;2023-02-16T10:50:51;101948.81;;;7.20;100.00
12969;BME280;6549;53.128;8.182;2023-02-16T10:53:59;101960.75;;;7.16;100.00
12969;BME280;6549;53.128;8.182;2023-02-16T10:57:06;101961.88;;;7.15;100.00
12969;BME280;6549;53.128;8.182;2023-02-16T11:00:15;101953.19;;;7.13;100.00
12969;BME280;6549;53.128;8.182;2023-02-16T11:03:18;101953.88;;;7.10;100.00
12969;BME280;6549;53.128;8.182;2023-02-16T11:06:23;101953.88;;;7.10;100.00
12969;BME280;6549;53.128;8.182;2023-02-16T11:09:28;101953.53;;;7.11;100.00
12969;BME280;6549;53.128;8.182;2023-02-16T11:12:31;101951.63;;;7.12;100.00
12969;BME280;6549;53.128;8.182;2023-02-16T11:15:35;101949.34;;;7.14;100.00
12969;BME280;6549;53.128;8.182;2023-02-16T11:18:40;101954.47;;;7.15;100.00
12969;BME280;6549;53.128;8.182;2023-02-16T11:21:50;101954.34;;;7.12;100.00
12969;BME280;6549;53.128;8.182;2023-02-16T11:24:51;101949.19;;;7.10;100.00
12969;BME280;6549;53.128;8.182;2023-02-16T11:28:00;101941.31;;;7.09;100.00
12969;BME280;6549;53.128;8.182;2023-02-16T11:31:38;101945.22;;;7.08;100.00
12969;BME280;6549;53.128;8.182;2023-02-16T11:34:48;101947.47;;;7.06;100.00
12969;BME280;6549;53.128;8.182;2023-02-16T11:37:49;101943.88;;;7.14;100.00
12969;BME280;6549;53.128;8.182;2023-02-16T11:40:50;101932.06;;;7.22;100.00
12969;BME280;6549;53.128;8.182;2023-02-16T11:43:52;101944.41;;;7.28;100.00
12969;BME280;6549;53.128;8.182;2023-02-16T11:46:54;101936.00;;;7.33;100.00
12969;BME280;6549;53.128;8.182;2023-02-16T11:50:28;101933.72;;;7.35;100.00
12969;BME280;6549;53.128;8.182;2023-02-16T11:53:31;101944.00;;;7.38;100.00
12969;BME280;6549;53.128;8.182;2023-02-16T11:56:41;101937.59;;;7.34;100.00
12969;BME280;6549;53.128;8.182;2023-02-16T11:59:42;101933.06;;;7.38;100.00
12969;BME280;6549;53.128;8.182;2023-02-16T12:06:13;101940.06;;;7.48;100.00
12969;BME280;6549;53.128;8.182;2023-02-16T12:16:46;101942.56;;;7.53;100.00
12969;BME280;6549;53.128;8.182;2023-02-16T12:20:01;101923.78;;;7.51;100.00
12969;BME280;6549;53.128;8.182;2023-02-16T12:35:55;101915.13;;;7.61;100.00
12969;BME280;6549;53.128;8.182;2023-02-16T12:42:43;101884.59;;;7.59;100.00
12969;BME280;6549;53.128;8.182;2023-02-16T12:45:48;101872.03;;;7.58;100.00
12969;BME280;6549;53.128;8.182;2023-02-16T12:48:53;101861.44;;;7.57;100.00
12969;BME280;6549;53.128;8.182;2023-02-16T12:52:02;101861.56;;;7.60;100.00
12969;BME280;6549;53.128;8.182;2023-02-16T12:55:14;101859.28;;;7.62;100.00
12969;BME280;6549;53.128;8.182;2023-02-16T12:58:23;101842.53;;;7.64;100.00
12969;BME280;6549;53.128;8.182;2023-02-16T13:01:27;101847.09;;;7.60;100.00
12969;BME280;6549;53.128;8.182;2023-02-16T13:04:39;101846.03;;;7.52;100.00
12969;BME280;6549;53.128;8.182;2023-02-16T13:07:43;101853.69;;;7.47;100.00
12969;BME280;6549;53.128;8.182;2023-02-16T13:11:02;101850.22;;;7.38;100.00
12969;BME280;6549;53.128;8.182;2023-02-16T13:14:16;101842.34;;;7.36;100.00
12969;BME280;6549;53.128;8.182;2023-02-16T13:17:25;101844.63;;;7.34;100.00
12969;BME280;6549;53.128;8.182;2023-02-16T13:20:30;101837.44;;;7.30;100.00
12969;BME280;6549;53.128;8.182;2023-02-16T13:26:55;101844.94;;;7.20;100.00
12969;BME280;6549;53.128;8.182;2023-02-16T13:30:32;101845.13;;;7.15;100.00
12969;BME280;6549;53.128;8.182;2023-02-16T13:33:59;101852.53;;;7.15;100.00
12969;BME280;6549;53.128;8.182;2023-02-16T13:37:23;101855.59;;;7.13;100.00
12969;BME280;6549;53.128;8.182;2023-02-16T13:44:14;101850.69;;;7.07;100.00
12969;BME280;6549;53.128;8.182;2023-02-16T13:47:19;101850.00;;;7.10;100.00
12969;BME280;6549;53.128;8.182;2023-02-16T13:50:28;101841.34;;;7.08;100.00
12969;BME280;6549;53.128;8.182;2023-02-16T13:53:33;101843.28;;;7.07;100.00
12969;BME280;6549;53.128;8.182;2023-02-16T13:56:36;101837.81;;;7.07;100.00
12969;BME280;6549;53.128;8.182;2023-02-16T14:02:55;101836.00;;;7.11;100.00
12969;BME280;6549;53.128;8.182;2023-02-16T14:12:29;101827.03;;;7.23;100.00
12969;BME280;6549;53.128;8.182;2023-02-16T14:15:30;101830.25;;;7.25;100.00
12969;BME280;6549;53.128;8.182;2023-02-16T14:18:33;101823.63;;;7.26;100.00
12969;BME280;6549;53.128;8.182;2023-02-16T14:21:47;101834.56;;;7.26;100.00
12969;BME280;6549;53.128;8.182;2023-02-16T14:24:56;101830.25;;;7.25;100.00
12969;BME280;6549;53.128;8.182;2023-02-16T14:27:59;101821.69;;;7.27;100.00
12969;BME280;6549;53.128;8.182;2023-02-16T14:31:02;101815.31;;;7.22;100.00
12969;BME280;6549;53.128;8.182;2023-02-16T14:34:17;101825.91;;;7.24;100.00
12969;BME280;6549;53.128;8.182;2023-02-16T14:37:27;101809.97;;;7.26;100.00
12969;BME280;6549;53.128;8.182;2023-02-16T14:43:44;101804.75;;;7.33;100.00
12969;BME280;6549;53.128;8.182;2023-02-16T14:47:09;101799.72;;;7.35;100.00
12969;BME280;6549;53.128;8.182;2023-02-16T14:56:53;101810.03;;;7.50;100.00
12969;BME280;6549;53.128;8.182;2023-02-16T15:00:29;101803.06;;;7.53;100.00
12969;BME280;6549;53.128;8.182;2023-02-16T15:03:42;101795.22;;;7.51;100.00
12969;BME280;6549;53.128;8.182;2023-02-16T15:06:45;101799.44;;;7.49;100.00
12969;BME280;6549;53.128;8.182;2023-02-16T15:09:48;101788.97;;;7.51;100.00
12969;BME280;6549;53.128;8.182;2023-02-16T15:12:56;101789.28;;;7.49;100.00
12969;BME280;6549;53.128;8.182;2023-02-16T15:15:59;101793.16;;;7.48;100.00
12969;BME280;6549;53.128;8.182;2023-02-16T15:19:07;101789.97;;;7.46;100.00
12969;BME280;6549;53.128;8.182;2023-02-16T15:22:19;101790.78;;;7.47;100.00
12969;BME280;6549;53.128;8.182;2023-02-16T15:25:37;101793.84;;;7.45;100.00
12969;BME280;6549;53.128;8.182;2023-02-16T15:28:38;101776.19;;;7.43;100.00
12969;BME280;6549;53.128;8.182;2023-02-16T15:31:40;101779.25;;;7.41;100.00
12969;BME280;6549;53.128;8.182;2023-02-16T15:34:40;101782.47;;;7.43;100.00
12969;BME280;6549;53.128;8.182;2023-02-16T15:37:41;101783.81;;;7.37;100.00
12969;BME280;6549;53.128;8.182;2023-02-16T15:40:41;101782.66;;;7.38;100.00
12969;BME280;6549;53.128;8.182;2023-02-16T15:43:48;101780.75;;;7.39;100.00
12969;BME280;6549;53.128;8.182;2023-02-16T15:46:49;101787.94;;;7.43;100.00
12969;BME280;6549;53.128;8.182;2023-02-16T15:49:50;101792.00;;;7.37;100.00
12969;BME280;6549;53.128;8.182;2023-02-16T15:52:50;101789.16;;;7.34;100.00
12969;BME280;6549;53.128;8.182;2023-02-16T15:55:53;101792.22;;;7.32;100.00
12969;BME280;6549;53.128;8.182;2023-02-16T15:58:59;101788.13;;;7.38;100.00
12969;BME280;6549;53.128;8.182;2023-02-16T16:02:14;101787.56;;;7.33;100.00
12969;BME280;6549;53.128;8.182;2023-02-16T16:05:23;101784.34;;;7.31;100.00
12969;BME280;6549;53.128;8.182;2023-02-16T16:08:26;101779.22;;;7.29;100.00
12969;BME280;6549;53.128;8.182;2023-02-16T16:11:27;101774.88;;;7.28;100.00
12969;BME280;6549;53.128;8.182;2023-02-16T16:14:28;101773.97;;;7.24;100.00
12969;BME280;6549;53.128;8.182;2023-02-16T16:17:32;101769.63;;;7.23;100.00
12969;BME280;6549;53.128;8.182;2023-02-16T16:20:36;101767.00;;;7.27;100.00
12969;BME280;6549;53.128;8.182;2023-02-16T16:23:37;101763.72;;;7.21;100.00
12969;BME280;6549;53.128;8.182;2023-02-16T16:26:53;101759.81;;;7.22;100.00
12969;BME280;6549;53.128;8.182;2023-02-16T16:30:30;101748.91;;;7.22;100.00
12969;BME280;6549;53.128;8.182;2023-02-16T16:34:03;101749.59;;;7.19;100.00
12969;BME280;6549;53.128;8.182;2023-02-16T16:37:05;101756.28;;;7.21;100.00
12969;BME280;6549;53.128;8.182;2023-02-16T16:43:15;101740.25;;;7.20;100.00
12969;BME280;6549;53.128;8.182;2023-02-16T16:46:23;101739.91;;;7.21;100.00
12969;BME280;6549;53.128;8.182;2023-02-16T16:49:24;101734.56;;;7.25;100.00
12969;BME280;6549;53.128;8.182;2023-02-16T16:52:36;101741.50;;;7.22;100.00
12969;BME280;6549;53.128;8.182;2023-02-16T16:55:37;101726.16;;;7.30;100.00
12969;BME280;6549;53.128;8.182;2023-02-16T16:58:37;101722.47;;;7.26;100.00
12969;BME280;6549;53.128;8.182;2023-02-16T17:01:38;101728.31;;;7.25;100.00
12969;BME280;6549;53.128;8.182;2023-02-16T17:04:38;101726.81;;;7.27;100.00
12969;BME280;6549;53.128;8.182;2023-02-16T17:07:38;101729.53;;;7.27;100.00
12969;BME280;6549;53.128;8.182;2023-02-16T17:10:40;101732.97;;;7.24;100.00
12969;BME280;6549;53.128;8.182;2023-02-16T17:13:40;101734.56;;;7.25;100.00
12969;BME280;6549;53.128;8.182;2023-02-16T17:16:43;101727.16;;;7.26;100.00
12969;BME280;6549;53.128;8.182;2023-02-16T17:19:43;101730.22;;;7.24;100.00
12969;BME280;6549;53.128;8.182;2023-02-16T17:22:44;101730.91;;;7.21;100.00
12969;BME280;6549;53.128;8.182;2023-02-16T17:25:45;101732.84;;;7.20;100.00
12969;BME280;6549;53.128;8.182;2023-02-16T17:28:45;101728.41;;;7.16;100.00
12969;BME280;6549;53.128;8.182;2023-02-16T17:31:45;101732.94;;;7.12;100.00
12969;BME280;6549;53.128;8.182;2023-02-16T17:34:45;101733.75;;;7.12;100.00
12969;BME280;6549;53.128;8.182;2023-02-16T17:37:46;101729.41;;;7.11;100.00
12969;BME280;6549;53.128;8.182;2023-02-16T17:40:48;101729.97;;;7.17;100.00
12969;BME280;6549;53.128;8.182;2023-02-16T17:43:49;101732.50;;;7.22;100.00
12969;BME280;6549;53.128;8.182;2023-02-16T17:46:49;101735.44;;;7.17;100.00
12969;BME280;6549;53.128;8.182;2023-02-16T17:49:49;101731.56;;;7.18;100.00
12969;BME280;6549;53.128;8.182;2023-02-16T17:52:50;101724.06;;;7.15;100.00